METAR Data
IDs: Format: Raw Decoded Include TAF

Data at: 0204 UTC 01 Mar 2021

KY50 010156Z AUTO 28014G22KT 10SM CLR M01/M04 A2987 RMK AO2 SLP122 T10061039 FZRANO $